sensor_id;sensor_type;location;lat;lon;timestamp;P1;durP1;ratioP1;P2;durP2;ratioP2
39620;SDS011;25309;48.686;9.170;2022-12-07T00:01:18;8.47;;;5.40;;
39620;SDS011;25309;48.686;9.170;2022-12-07T00:03:47;8.13;;;5.50;;
39620;SDS011;25309;48.686;9.170;2022-12-07T00:06:16;7.30;;;4.93;;
39620;SDS011;25309;48.686;9.170;2022-12-07T00:08:44;7.33;;;4.90;;
39620;SDS011;25309;48.686;9.170;2022-12-07T00:11:12;8.23;;;5.33;;
39620;SDS011;25309;48.686;9.170;2022-12-07T00:13:40;7.03;;;4.97;;
39620;SDS011;25309;48.686;9.170;2022-12-07T00:16:08;7.67;;;5.20;;
39620;SDS011;25309;48.686;9.170;2022-12-07T00:18:38;8.13;;;5.43;;
39620;SDS011;25309;48.686;9.170;2022-12-07T00:21:05;8.27;;;6.13;;
39620;SDS011;25309;48.686;9.170;2022-12-07T00:23:35;8.80;;;5.40;;
39620;SDS011;25309;48.686;9.170;2022-12-07T00:26:03;7.13;;;5.00;;
39620;SDS011;25309;48.686;9.170;2022-12-07T00:28:31;7.33;;;5.17;;
39620;SDS011;25309;48.686;9.170;2022-12-07T00:31:00;7.67;;;5.27;;
39620;SDS011;25309;48.686;9.170;2022-12-07T00:33:29;7.80;;;5.23;;
39620;SDS011;25309;48.686;9.170;2022-12-07T00:35:57;8.73;;;5.30;;
39620;SDS011;25309;48.686;9.170;2022-12-07T00:38:27;7.40;;;5.00;;
39620;SDS011;25309;48.686;9.170;2022-12-07T00:40:58;7.30;;;5.07;;
39620;SDS011;25309;48.686;9.170;2022-12-07T00:43:26;8.23;;;5.17;;
39620;SDS011;25309;48.686;9.170;2022-12-07T00:45:53;9.47;;;5.70;;
39620;SDS011;25309;48.686;9.170;2022-12-07T00:48:21;9.50;;;5.93;;
39620;SDS011;25309;48.686;9.170;2022-12-07T00:50:49;8.23;;;5.80;;
39620;SDS011;25309;48.686;9.170;2022-12-07T00:53:17;8.17;;;5.23;;
39620;SDS011;25309;48.686;9.170;2022-12-07T00:55:45;9.13;;;5.57;;
39620;SDS011;25309;48.686;9.170;2022-12-07T00:58:12;8.80;;;6.20;;
39620;SDS011;25309;48.686;9.170;2022-12-07T01:00:40;7.73;;;5.73;;
39620;SDS011;25309;48.686;9.170;2022-12-07T01:03:08;8.63;;;5.80;;
39620;SDS011;25309;48.686;9.170;2022-12-07T01:05:37;7.73;;;5.73;;
39620;SDS011;25309;48.686;9.170;2022-12-07T01:08:05;8.07;;;5.77;;
39620;SDS011;25309;48.686;9.170;2022-12-07T01:10:33;8.43;;;5.87;;
39620;SDS011;25309;48.686;9.170;2022-12-07T01:13:00;8.47;;;5.80;;
39620;SDS011;25309;48.686;9.170;2022-12-07T01:15:27;8.73;;;6.37;;
39620;SDS011;25309;48.686;9.170;2022-12-07T01:17:54;10.20;;;6.30;;
39620;SDS011;25309;48.686;9.170;2022-12-07T01:20:21;8.43;;;6.30;;
39620;SDS011;25309;48.686;9.170;2022-12-07T01:22:48;9.17;;;6.30;;
39620;SDS011;25309;48.686;9.170;2022-12-07T01:25:15;9.30;;;6.67;;
39620;SDS011;25309;48.686;9.170;2022-12-07T01:27:44;8.63;;;6.47;;
39620;SDS011;25309;48.686;9.170;2022-12-07T01:30:11;9.03;;;6.80;;
39620;SDS011;25309;48.686;9.170;2022-12-07T01:32:39;8.57;;;6.40;;
39620;SDS011;25309;48.686;9.170;2022-12-07T01:35:06;8.00;;;6.23;;
39620;SDS011;25309;48.686;9.170;2022-12-07T01:37:34;9.00;;;6.30;;
39620;SDS011;25309;48.686;9.170;2022-12-07T01:40:02;8.70;;;6.37;;
39620;SDS011;25309;48.686;9.170;2022-12-07T01:42:30;8.57;;;6.80;;
39620;SDS011;25309;48.686;9.170;2022-12-07T01:48:12;8.93;;;6.37;;
39620;SDS011;25309;48.686;9.170;2022-12-07T01:50:44;9.47;;;6.23;;
39620;SDS011;25309;48.686;9.170;2022-12-07T01:53:13;8.83;;;6.27;;
39620;SDS011;25309;48.686;9.170;2022-12-07T01:55:42;8.87;;;6.00;;
39620;SDS011;25309;48.686;9.170;2022-12-07T01:58:12;9.40;;;6.87;;
39620;SDS011;25309;48.686;9.170;2022-12-07T02:00:40;9.60;;;6.43;;
39620;SDS011;25309;48.686;9.170;2022-12-07T02:03:08;10.63;;;6.50;;
39620;SDS011;25309;48.686;9.170;2022-12-07T02:05:40;9.53;;;6.73;;
39620;SDS011;25309;48.686;9.170;2022-12-07T02:08:09;9.07;;;6.57;;
39620;SDS011;25309;48.686;9.170;2022-12-07T02:10:38;10.37;;;6.40;;
39620;SDS011;25309;48.686;9.170;2022-12-07T02:13:06;11.53;;;6.80;;
39620;SDS011;25309;48.686;9.170;2022-12-07T02:15:51;9.80;;;6.80;;
39620;SDS011;25309;48.686;9.170;2022-12-07T02:18:31;8.67;;;6.40;;
39620;SDS011;25309;48.686;9.170;2022-12-07T02:21:09;10.40;;;7.40;;
39620;SDS011;25309;48.686;9.170;2022-12-07T02:23:46;10.97;;;7.57;;
39620;SDS011;25309;48.686;9.170;2022-12-07T02:26:42;10.57;;;6.83;;
39620;SDS011;25309;48.686;9.170;2022-12-07T02:29:34;11.13;;;7.10;;
39620;SDS011;25309;48.686;9.170;2022-12-07T02:32:06;10.53;;;7.03;;
39620;SDS011;25309;48.686;9.170;2022-12-07T02:34:41;10.93;;;7.00;;
39620;SDS011;25309;48.686;9.170;2022-12-07T02:37:17;9.77;;;6.67;;
39620;SDS011;25309;48.686;9.170;2022-12-07T02:39:53;10.30;;;7.10;;
39620;SDS011;25309;48.686;9.170;2022-12-07T02:42:26;9.77;;;6.77;;
39620;SDS011;25309;48.686;9.170;2022-12-07T02:44:59;10.13;;;7.30;;
39620;SDS011;25309;48.686;9.170;2022-12-07T02:47:28;10.80;;;6.90;;
39620;SDS011;25309;48.686;9.170;2022-12-07T02:49:58;10.03;;;6.57;;
39620;SDS011;25309;48.686;9.170;2022-12-07T02:52:25;10.40;;;7.40;;
39620;SDS011;25309;48.686;9.170;2022-12-07T02:54:52;10.83;;;6.40;;
39620;SDS011;25309;48.686;9.170;2022-12-07T02:57:23;9.30;;;6.73;;
39620;SDS011;25309;48.686;9.170;2022-12-07T03:00:03;10.70;;;6.93;;
39620;SDS011;25309;48.686;9.170;2022-12-07T03:02:38;9.37;;;6.93;;
39620;SDS011;25309;48.686;9.170;2022-12-07T03:08:19;9.53;;;7.00;;
39620;SDS011;25309;48.686;9.170;2022-12-07T03:10:56;9.07;;;6.33;;
39620;SDS011;25309;48.686;9.170;2022-12-07T03:13:26;9.13;;;6.43;;
39620;SDS011;25309;48.686;9.170;2022-12-07T03:16:02;9.87;;;7.00;;
39620;SDS011;25309;48.686;9.170;2022-12-07T03:18:35;10.40;;;7.07;;
39620;SDS011;25309;48.686;9.170;2022-12-07T03:21:08;10.17;;;7.07;;
39620;SDS011;25309;48.686;9.170;2022-12-07T03:23:40;8.90;;;6.33;;
39620;SDS011;25309;48.686;9.170;2022-12-07T03:26:11;9.40;;;6.80;;
39620;SDS011;25309;48.686;9.170;2022-12-07T03:28:42;9.13;;;6.33;;
39620;SDS011;25309;48.686;9.170;2022-12-07T03:31:16;9.27;;;6.30;;
39620;SDS011;25309;48.686;9.170;2022-12-07T03:33:47;9.00;;;6.60;;
39620;SDS011;25309;48.686;9.170;2022-12-07T03:36:20;10.77;;;6.53;;
39620;SDS011;25309;48.686;9.170;2022-12-07T03:38:53;9.27;;;6.43;;
39620;SDS011;25309;48.686;9.170;2022-12-07T03:41:26;10.63;;;6.40;;
39620;SDS011;25309;48.686;9.170;2022-12-07T03:43:55;8.33;;;5.83;;
39620;SDS011;25309;48.686;9.170;2022-12-07T03:46:27;10.43;;;6.63;;
39620;SDS011;25309;48.686;9.170;2022-12-07T03:49:04;8.87;;;6.40;;
39620;SDS011;25309;48.686;9.170;2022-12-07T03:51:38;9.50;;;6.60;;
39620;SDS011;25309;48.686;9.170;2022-12-07T03:54:10;9.50;;;6.47;;
39620;SDS011;25309;48.686;9.170;2022-12-07T03:56:42;9.77;;;6.83;;
39620;SDS011;25309;48.686;9.170;2022-12-07T03:59:11;8.60;;;6.53;;
39620;SDS011;25309;48.686;9.170;2022-12-07T04:01:42;10.13;;;6.50;;
39620;SDS011;25309;48.686;9.170;2022-12-07T04:04:10;8.73;;;6.50;;
39620;SDS011;25309;48.686;9.170;2022-12-07T04:06:37;9.07;;;6.30;;
39620;SDS011;25309;48.686;9.170;2022-12-07T04:09:04;9.07;;;6.30;;
39620;SDS011;25309;48.686;9.170;2022-12-07T04:11:31;10.17;;;6.60;;
39620;SDS011;25309;48.686;9.170;2022-12-07T04:13:58;8.50;;;6.60;;
39620;SDS011;25309;48.686;9.170;2022-12-07T04:16:45;8.93;;;5.63;;
39620;SDS011;25309;48.686;9.170;2022-12-07T04:19:12;8.47;;;5.77;;
39620;SDS011;25309;48.686;9.170;2022-12-07T04:21:39;9.03;;;5.67;;
39620;SDS011;25309;48.686;9.170;2022-12-07T04:24:06;8.83;;;6.40;;
39620;SDS011;25309;48.686;9.170;2022-12-07T04:26:33;8.87;;;5.80;;
39620;SDS011;25309;48.686;9.170;2022-12-07T04:29:01;7.63;;;5.40;;
39620;SDS011;25309;48.686;9.170;2022-12-07T04:31:33;9.10;;;6.17;;
39620;SDS011;25309;48.686;9.170;2022-12-07T04:34:02;8.37;;;5.87;;
39620;SDS011;25309;48.686;9.170;2022-12-07T04:36:29;8.77;;;6.03;;
39620;SDS011;25309;48.686;9.170;2022-12-07T04:38:57;6.53;;;5.40;;
39620;SDS011;25309;48.686;9.170;2022-12-07T04:41:24;8.53;;;5.83;;
39620;SDS011;25309;48.686;9.170;2022-12-07T04:43:55;9.87;;;5.80;;
39620;SDS011;25309;48.686;9.170;2022-12-07T04:46:22;7.77;;;5.37;;
39620;SDS011;25309;48.686;9.170;2022-12-07T04:48:50;9.77;;;6.00;;
39620;SDS011;25309;48.686;9.170;2022-12-07T04:51:20;8.80;;;6.00;;
39620;SDS011;25309;48.686;9.170;2022-12-07T04:53:49;9.00;;;5.93;;
39620;SDS011;25309;48.686;9.170;2022-12-07T04:56:16;9.17;;;6.17;;
39620;SDS011;25309;48.686;9.170;2022-12-07T04:58:44;7.53;;;5.53;;
39620;SDS011;25309;48.686;9.170;2022-12-07T05:01:12;9.33;;;5.70;;
39620;SDS011;25309;48.686;9.170;2022-12-07T05:03:40;7.83;;;5.00;;
39620;SDS011;25309;48.686;9.170;2022-12-07T05:06:07;6.67;;;4.27;;
39620;SDS011;25309;48.686;9.170;2022-12-07T05:08:40;6.57;;;4.13;;
39620;SDS011;25309;48.686;9.170;2022-12-07T05:11:09;7.73;;;4.83;;
39620;SDS011;25309;48.686;9.170;2022-12-07T05:13:56;9.63;;;6.30;;
39620;SDS011;25309;48.686;9.170;2022-12-07T05:16:23;7.77;;;4.93;;
39620;SDS011;25309;48.686;9.170;2022-12-07T05:18:50;8.90;;;5.70;;
39620;SDS011;25309;48.686;9.170;2022-12-07T05:21:18;9.93;;;6.50;;
39620;SDS011;25309;48.686;9.170;2022-12-07T05:23:46;9.97;;;7.20;;
39620;SDS011;25309;48.686;9.170;2022-12-07T05:26:13;12.03;;;8.03;;
39620;SDS011;25309;48.686;9.170;2022-12-07T05:28:40;12.33;;;8.53;;
39620;SDS011;25309;48.686;9.170;2022-12-07T05:31:07;11.77;;;7.20;;
39620;SDS011;25309;48.686;9.170;2022-12-07T05:33:34;10.40;;;6.90;;
39620;SDS011;25309;48.686;9.170;2022-12-07T05:36:01;10.30;;;6.90;;
39620;SDS011;25309;48.686;9.170;2022-12-07T05:38:31;11.37;;;7.17;;
39620;SDS011;25309;48.686;9.170;2022-12-07T05:41:01;9.53;;;6.47;;
39620;SDS011;25309;48.686;9.170;2022-12-07T05:43:29;10.63;;;7.17;;
39620;SDS011;25309;48.686;9.170;2022-12-07T05:45:56;11.80;;;6.97;;
39620;SDS011;25309;48.686;9.170;2022-12-07T05:48:24;11.47;;;7.30;;
39620;SDS011;25309;48.686;9.170;2022-12-07T05:50:51;9.23;;;6.47;;
39620;SDS011;25309;48.686;9.170;2022-12-07T05:53:19;9.83;;;6.30;;
39620;SDS011;25309;48.686;9.170;2022-12-07T05:55:48;10.97;;;6.23;;
39620;SDS011;25309;48.686;9.170;2022-12-07T05:58:17;7.93;;;5.50;;
39620;SDS011;25309;48.686;9.170;2022-12-07T06:01:02;8.70;;;5.83;;
39620;SDS011;25309;48.686;9.170;2022-12-07T06:03:29;8.03;;;5.47;;
39620;SDS011;25309;48.686;9.170;2022-12-07T06:05:56;7.70;;;5.40;;
39620;SDS011;25309;48.686;9.170;2022-12-07T06:08:23;8.77;;;5.50;;
39620;SDS011;25309;48.686;9.170;2022-12-07T06:10:50;7.43;;;5.20;;
39620;SDS011;25309;48.686;9.170;2022-12-07T06:13:39;8.33;;;5.33;;
39620;SDS011;25309;48.686;9.170;2022-12-07T06:16:12;9.07;;;5.00;;
39620;SDS011;25309;48.686;9.170;2022-12-07T06:18:39;8.47;;;4.90;;
39620;SDS011;25309;48.686;9.170;2022-12-07T06:21:06;8.83;;;5.57;;
39620;SDS011;25309;48.686;9.170;2022-12-07T06:23:33;6.97;;;4.87;;
39620;SDS011;25309;48.686;9.170;2022-12-07T06:26:00;8.07;;;5.60;;
39620;SDS011;25309;48.686;9.170;2022-12-07T06:28:27;6.87;;;4.90;;
39620;SDS011;25309;48.686;9.170;2022-12-07T06:30:58;8.63;;;5.80;;
39620;SDS011;25309;48.686;9.170;2022-12-07T06:33:25;8.00;;;5.63;;
39620;SDS011;25309;48.686;9.170;2022-12-07T06:35:52;8.17;;;5.50;;
39620;SDS011;25309;48.686;9.170;2022-12-07T06:38:20;9.13;;;5.83;;
39620;SDS011;25309;48.686;9.170;2022-12-07T06:40:47;8.50;;;5.80;;
39620;SDS011;25309;48.686;9.170;2022-12-07T06:43:14;10.13;;;6.07;;
39620;SDS011;25309;48.686;9.170;2022-12-07T06:45:41;9.67;;;6.20;;
39620;SDS011;25309;48.686;9.170;2022-12-07T06:48:10;8.40;;;5.50;;
39620;SDS011;25309;48.686;9.170;2022-12-07T06:50:37;8.63;;;5.83;;
39620;SDS011;25309;48.686;9.170;2022-12-07T06:53:04;8.17;;;5.57;;
39620;SDS011;25309;48.686;9.170;2022-12-07T06:55:31;10.17;;;6.63;;
39620;SDS011;25309;48.686;9.170;2022-12-07T06:57:58;9.07;;;5.90;;
39620;SDS011;25309;48.686;9.170;2022-12-07T07:00:25;10.53;;;7.50;;
39620;SDS011;25309;48.686;9.170;2022-12-07T07:02:52;10.27;;;6.90;;
39620;SDS011;25309;48.686;9.170;2022-12-07T07:05:21;10.33;;;7.53;;
39620;SDS011;25309;48.686;9.170;2022-12-07T07:07:48;12.03;;;8.03;;
39620;SDS011;25309;48.686;9.170;2022-12-07T07:10:35;13.10;;;7.83;;
39620;SDS011;25309;48.686;9.170;2022-12-07T07:13:02;10.67;;;6.33;;
39620;SDS011;25309;48.686;9.170;2022-12-07T07:15:30;9.83;;;6.90;;
39620;SDS011;25309;48.686;9.170;2022-12-07T07:17:58;9.40;;;6.13;;
39620;SDS011;25309;48.686;9.170;2022-12-07T07:20:34;10.00;;;6.50;;
39620;SDS011;25309;48.686;9.170;2022-12-07T07:23:01;9.63;;;6.50;;
39620;SDS011;25309;48.686;9.170;2022-12-07T07:25:28;10.00;;;6.43;;
39620;SDS011;25309;48.686;9.170;2022-12-07T07:27:55;11.30;;;6.87;;
39620;SDS011;25309;48.686;9.170;2022-12-07T07:30:23;8.63;;;6.00;;
39620;SDS011;25309;48.686;9.170;2022-12-07T07:32:50;10.70;;;6.87;;
39620;SDS011;25309;48.686;9.170;2022-12-07T07:35:17;11.20;;;7.10;;
39620;SDS011;25309;48.686;9.170;2022-12-07T07:37:45;11.77;;;7.27;;
39620;SDS011;25309;48.686;9.170;2022-12-07T07:40:13;11.57;;;7.10;;
39620;SDS011;25309;48.686;9.170;2022-12-07T07:42:40;9.70;;;6.60;;
39620;SDS011;25309;48.686;9.170;2022-12-07T07:45:07;9.43;;;6.60;;
39620;SDS011;25309;48.686;9.170;2022-12-07T07:47:34;11.30;;;7.40;;
39620;SDS011;25309;48.686;9.170;2022-12-07T07:50:02;11.23;;;7.40;;
39620;SDS011;25309;48.686;9.170;2022-12-07T07:52:29;8.90;;;6.50;;
39620;SDS011;25309;48.686;9.170;2022-12-07T07:54:59;11.23;;;7.27;;
39620;SDS011;25309;48.686;9.170;2022-12-07T07:57:25;10.27;;;6.97;;
39620;SDS011;25309;48.686;9.170;2022-12-07T07:59:53;11.57;;;7.30;;
39620;SDS011;25309;48.686;9.170;2022-12-07T08:02:20;10.37;;;6.83;;
39620;SDS011;25309;48.686;9.170;2022-12-07T08:04:48;9.63;;;6.80;;
39620;SDS011;25309;48.686;9.170;2022-12-07T08:07:15;10.07;;;6.90;;
39620;SDS011;25309;48.686;9.170;2022-12-07T08:09:42;10.73;;;7.00;;
39620;SDS011;25309;48.686;9.170;2022-12-07T08:12:11;11.30;;;7.17;;
39620;SDS011;25309;48.686;9.170;2022-12-07T08:14:38;9.30;;;6.57;;
39620;SDS011;25309;48.686;9.170;2022-12-07T08:17:05;11.47;;;7.23;;
39620;SDS011;25309;48.686;9.170;2022-12-07T08:19:32;9.57;;;6.37;;
39620;SDS011;25309;48.686;9.170;2022-12-07T08:21:59;11.03;;;6.40;;
39620;SDS011;25309;48.686;9.170;2022-12-07T08:24:26;9.93;;;6.20;;
39620;SDS011;25309;48.686;9.170;2022-12-07T08:26:53;10.50;;;6.83;;
39620;SDS011;25309;48.686;9.170;2022-12-07T08:29:21;9.97;;;6.30;;
39620;SDS011;25309;48.686;9.170;2022-12-07T08:31:48;11.00;;;6.73;;
39620;SDS011;25309;48.686;9.170;2022-12-07T08:34:15;11.03;;;6.03;;
39620;SDS011;25309;48.686;9.170;2022-12-07T08:36:42;9.67;;;6.27;;
39620;SDS011;25309;48.686;9.170;2022-12-07T08:39:09;10.40;;;6.67;;
39620;SDS011;25309;48.686;9.170;2022-12-07T08:41:56;11.90;;;7.37;;
39620;SDS011;25309;48.686;9.170;2022-12-07T08:44:24;10.33;;;6.80;;
39620;SDS011;25309;48.686;9.170;2022-12-07T08:46:52;10.27;;;6.53;;
39620;SDS011;25309;48.686;9.170;2022-12-07T08:49:23;10.10;;;6.67;;
39620;SDS011;25309;48.686;9.170;2022-12-07T08:51:54;10.17;;;6.10;;
39620;SDS011;25309;48.686;9.170;2022-12-07T08:54:21;11.20;;;6.90;;
39620;SDS011;25309;48.686;9.170;2022-12-07T08:56:49;10.83;;;7.17;;
39620;SDS011;25309;48.686;9.170;2022-12-07T08:59:26;9.60;;;6.50;;
39620;SDS011;25309;48.686;9.170;2022-12-07T09:01:54;8.80;;;5.93;;
39620;SDS011;25309;48.686;9.170;2022-12-07T09:04:21;9.40;;;6.00;;
39620;SDS011;25309;48.686;9.170;2022-12-07T09:06:48;9.30;;;5.83;;
39620;SDS011;25309;48.686;9.170;2022-12-07T09:09:15;8.73;;;5.30;;
39620;SDS011;25309;48.686;9.170;2022-12-07T09:11:42;8.20;;;5.53;;
39620;SDS011;25309;48.686;9.170;2022-12-07T09:14:11;8.47;;;5.73;;
39620;SDS011;25309;48.686;9.170;2022-12-07T09:16:40;9.30;;;5.67;;
39620;SDS011;25309;48.686;9.170;2022-12-07T09:19:07;9.13;;;5.30;;
39620;SDS011;25309;48.686;9.170;2022-12-07T09:21:34;8.47;;;5.50;;
39620;SDS011;25309;48.686;9.170;2022-12-07T09:24:01;8.67;;;5.37;;
39620;SDS011;25309;48.686;9.170;2022-12-07T09:26:28;8.20;;;5.43;;
39620;SDS011;25309;48.686;9.170;2022-12-07T09:28:55;8.17;;;5.70;;
39620;SDS011;25309;48.686;9.170;2022-12-07T09:31:22;8.83;;;5.93;;
39620;SDS011;25309;48.686;9.170;2022-12-07T09:33:54;7.57;;;5.13;;
39620;SDS011;25309;48.686;9.170;2022-12-07T09:36:21;8.10;;;5.13;;
39620;SDS011;25309;48.686;9.170;2022-12-07T09:38:48;7.03;;;5.37;;
39620;SDS011;25309;48.686;9.170;2022-12-07T09:41:15;6.70;;;4.50;;
39620;SDS011;25309;48.686;9.170;2022-12-07T09:43:43;8.23;;;4.70;;
39620;SDS011;25309;48.686;9.170;2022-12-07T09:46:13;8.43;;;5.33;;
39620;SDS011;25309;48.686;9.170;2022-12-07T09:48:43;7.73;;;4.77;;
39620;SDS011;25309;48.686;9.170;2022-12-07T09:51:14;8.17;;;5.03;;
39620;SDS011;25309;48.686;9.170;2022-12-07T09:53:48;8.27;;;4.80;;
39620;SDS011;25309;48.686;9.170;2022-12-07T09:56:17;6.53;;;4.43;;
39620;SDS011;25309;48.686;9.170;2022-12-07T09:58:45;7.37;;;4.67;;
39620;SDS011;25309;48.686;9.170;2022-12-07T10:01:14;7.77;;;5.30;;
39620;SDS011;25309;48.686;9.170;2022-12-07T10:03:44;6.67;;;4.60;;
39620;SDS011;25309;48.686;9.170;2022-12-07T10:06:16;7.33;;;4.40;;
39620;SDS011;25309;48.686;9.170;2022-12-07T10:08:43;5.80;;;4.30;;
39620;SDS011;25309;48.686;9.170;2022-12-07T10:11:10;6.07;;;4.33;;
39620;SDS011;25309;48.686;9.170;2022-12-07T10:13:39;6.93;;;4.77;;
39620;SDS011;25309;48.686;9.170;2022-12-07T10:16:24;6.67;;;4.13;;
39620;SDS011;25309;48.686;9.170;2022-12-07T10:19:11;6.77;;;4.40;;
39620;SDS011;25309;48.686;9.170;2022-12-07T10:22:00;6.23;;;4.23;;
39620;SDS011;25309;48.686;9.170;2022-12-07T10:24:29;7.07;;;4.20;;
39620;SDS011;25309;48.686;9.170;2022-12-07T10:26:56;6.53;;;4.40;;
39620;SDS011;25309;48.686;9.170;2022-12-07T10:29:24;6.40;;;4.13;;
39620;SDS011;25309;48.686;9.170;2022-12-07T10:31:57;6.90;;;4.83;;
39620;SDS011;25309;48.686;9.170;2022-12-07T10:34:25;5.60;;;3.70;;
39620;SDS011;25309;48.686;9.170;2022-12-07T10:37:13;6.67;;;4.27;;
39620;SDS011;25309;48.686;9.170;2022-12-07T10:39:45;6.70;;;4.43;;
39620;SDS011;25309;48.686;9.170;2022-12-07T10:42:16;8.53;;;4.33;;
39620;SDS011;25309;48.686;9.170;2022-12-07T10:44:45;6.87;;;4.47;;
39620;SDS011;25309;48.686;9.170;2022-12-07T10:47:20;6.17;;;4.03;;
39620;SDS011;25309;48.686;9.170;2022-12-07T10:50:08;7.63;;;4.70;;
39620;SDS011;25309;48.686;9.170;2022-12-07T10:52:55;6.70;;;4.37;;
39620;SDS011;25309;48.686;9.170;2022-12-07T10:55:46;7.03;;;4.73;;
39620;SDS011;25309;48.686;9.170;2022-12-07T10:58:26;7.07;;;4.97;;
39620;SDS011;25309;48.686;9.170;2022-12-07T11:01:16;6.33;;;4.17;;
39620;SDS011;25309;48.686;9.170;2022-12-07T11:03:53;6.53;;;4.20;;
39620;SDS011;25309;48.686;9.170;2022-12-07T11:06:31;6.63;;;4.40;;
39620;SDS011;25309;48.686;9.170;2022-12-07T11:09:07;8.47;;;4.40;;
39620;SDS011;25309;48.686;9.170;2022-12-07T11:12:16;9.70;;;4.47;;
39620;SDS011;25309;48.686;9.170;2022-12-07T11:14:54;7.87;;;4.93;;
39620;SDS011;25309;48.686;9.170;2022-12-07T11:17:30;7.10;;;4.53;;
39620;SDS011;25309;48.686;9.170;2022-12-07T11:20:05;6.57;;;4.40;;
39620;SDS011;25309;48.686;9.170;2022-12-07T11:22:48;6.97;;;4.33;;
39620;SDS011;25309;48.686;9.170;2022-12-07T11:25:25;6.67;;;4.23;;
39620;SDS011;25309;48.686;9.170;2022-12-07T11:28:02;6.90;;;4.27;;
39620;SDS011;25309;48.686;9.170;2022-12-07T11:30:42;8.23;;;4.60;;
39620;SDS011;25309;48.686;9.170;2022-12-07T11:33:18;6.90;;;4.20;;
39620;SDS011;25309;48.686;9.170;2022-12-07T11:35:54;7.20;;;4.40;;
39620;SDS011;25309;48.686;9.170;2022-12-07T11:38:31;5.90;;;4.07;;
39620;SDS011;25309;48.686;9.170;2022-12-07T11:41:05;7.00;;;4.47;;
39620;SDS011;25309;48.686;9.170;2022-12-07T11:43:47;7.33;;;4.27;;
39620;SDS011;25309;48.686;9.170;2022-12-07T11:46:22;6.00;;;4.00;;
39620;SDS011;25309;48.686;9.170;2022-12-07T11:48:55;5.87;;;3.70;;
39620;SDS011;25309;48.686;9.170;2022-12-07T11:51:27;8.27;;;3.83;;
39620;SDS011;25309;48.686;9.170;2022-12-07T11:54:01;5.60;;;3.67;;
39620;SDS011;25309;48.686;9.170;2022-12-07T11:56:33;5.50;;;3.90;;
39620;SDS011;25309;48.686;9.170;2022-12-07T11:59:04;6.50;;;4.10;;
39620;SDS011;25309;48.686;9.170;2022-12-07T12:01:44;5.70;;;3.57;;
39620;SDS011;25309;48.686;9.170;2022-12-07T12:04:27;6.43;;;3.83;;
39620;SDS011;25309;48.686;9.170;2022-12-07T12:07:00;5.43;;;3.77;;
39620;SDS011;25309;48.686;9.170;2022-12-07T12:09:48;7.67;;;3.63;;
39620;SDS011;25309;48.686;9.170;2022-12-07T12:12:38;5.13;;;3.10;;
39620;SDS011;25309;48.686;9.170;2022-12-07T12:15:49;5.87;;;4.03;;
39620;SDS011;25309;48.686;9.170;2022-12-07T12:18:39;6.30;;;3.80;;
39620;SDS011;25309;48.686;9.170;2022-12-07T12:21:26;8.20;;;3.80;;
39620;SDS011;25309;48.686;9.170;2022-12-07T12:23:55;6.13;;;3.60;;
39620;SDS011;25309;48.686;9.170;2022-12-07T12:26:26;5.50;;;3.57;;
39620;SDS011;25309;48.686;9.170;2022-12-07T12:28:57;5.93;;;3.70;;
39620;SDS011;25309;48.686;9.170;2022-12-07T12:31:31;5.80;;;4.10;;
39620;SDS011;25309;48.686;9.170;2022-12-07T12:34:03;5.90;;;3.83;;
39620;SDS011;25309;48.686;9.170;2022-12-07T12:36:52;5.67;;;3.70;;
39620;SDS011;25309;48.686;9.170;2022-12-07T12:39:19;6.63;;;3.63;;
39620;SDS011;25309;48.686;9.170;2022-12-07T12:41:51;5.47;;;3.30;;
39620;SDS011;25309;48.686;9.170;2022-12-07T12:50:20;9.63;;;5.37;;
39620;SDS011;25309;48.686;9.170;2022-12-07T12:52:57;6.87;;;4.57;;
39620;SDS011;25309;48.686;9.170;2022-12-07T12:58:50;6.57;;;3.70;;
39620;SDS011;25309;48.686;9.170;2022-12-07T13:01:51;5.43;;;3.97;;
39620;SDS011;25309;48.686;9.170;2022-12-07T13:04:29;5.40;;;3.73;;
39620;SDS011;25309;48.686;9.170;2022-12-07T13:07:09;7.47;;;4.10;;
39620;SDS011;25309;48.686;9.170;2022-12-07T13:09:42;5.70;;;3.70;;
39620;SDS011;25309;48.686;9.170;2022-12-07T13:12:12;5.37;;;3.20;;
39620;SDS011;25309;48.686;9.170;2022-12-07T13:14:42;7.07;;;4.03;;
39620;SDS011;25309;48.686;9.170;2022-12-07T13:23:24;5.83;;;4.03;;
39620;SDS011;25309;48.686;9.170;2022-12-07T13:25:58;5.97;;;4.07;;
39620;SDS011;25309;48.686;9.170;2022-12-07T13:28:35;7.47;;;3.80;;
39620;SDS011;25309;48.686;9.170;2022-12-07T13:33:58;6.63;;;4.00;;
39620;SDS011;25309;48.686;9.170;2022-12-07T13:36:26;5.93;;;3.93;;
39620;SDS011;25309;48.686;9.170;2022-12-07T13:39:10;4.97;;;3.70;;
39620;SDS011;25309;48.686;9.170;2022-12-07T13:41:48;6.77;;;3.70;;
39620;SDS011;25309;48.686;9.170;2022-12-07T13:44:18;7.40;;;4.10;;
39620;SDS011;25309;48.686;9.170;2022-12-07T13:46:48;5.77;;;3.93;;
39620;SDS011;25309;48.686;9.170;2022-12-07T13:49:21;4.20;;;3.10;;
39620;SDS011;25309;48.686;9.170;2022-12-07T13:51:50;5.57;;;3.57;;
39620;SDS011;25309;48.686;9.170;2022-12-07T13:54:18;5.30;;;3.07;;
39620;SDS011;25309;48.686;9.170;2022-12-07T13:56:48;5.13;;;3.20;;
39620;SDS011;25309;48.686;9.170;2022-12-07T13:59:18;4.23;;;3.20;;
39620;SDS011;25309;48.686;9.170;2022-12-07T14:01:47;10.17;;;3.23;;
39620;SDS011;25309;48.686;9.170;2022-12-07T14:04:16;5.63;;;3.10;;
39620;SDS011;25309;48.686;9.170;2022-12-07T14:06:53;5.47;;;3.17;;
39620;SDS011;25309;48.686;9.170;2022-12-07T14:09:21;4.80;;;2.90;;
39620;SDS011;25309;48.686;9.170;2022-12-07T14:11:52;4.47;;;2.53;;
39620;SDS011;25309;48.686;9.170;2022-12-07T14:14:25;3.37;;;1.90;;
39620;SDS011;25309;48.686;9.170;2022-12-07T14:17:02;5.60;;;2.63;;
39620;SDS011;25309;48.686;9.170;2022-12-07T14:19:47;4.00;;;2.10;;
39620;SDS011;25309;48.686;9.170;2022-12-07T14:22:20;3.87;;;2.70;;
39620;SDS011;25309;48.686;9.170;2022-12-07T14:25:00;4.63;;;2.30;;
39620;SDS011;25309;48.686;9.170;2022-12-07T14:27:39;3.87;;;2.47;;
39620;SDS011;25309;48.686;9.170;2022-12-07T14:30:15;3.57;;;2.40;;
39620;SDS011;25309;48.686;9.170;2022-12-07T14:32:43;4.87;;;3.30;;
39620;SDS011;25309;48.686;9.170;2022-12-07T14:35:15;5.73;;;3.30;;
39620;SDS011;25309;48.686;9.170;2022-12-07T14:37:44;4.93;;;2.73;;
39620;SDS011;25309;48.686;9.170;2022-12-07T14:40:13;5.93;;;3.20;;
39620;SDS011;25309;48.686;9.170;2022-12-07T14:42:44;6.50;;;3.40;;
39620;SDS011;25309;48.686;9.170;2022-12-07T14:45:14;6.73;;;2.80;;
39620;SDS011;25309;48.686;9.170;2022-12-07T14:47:43;5.60;;;3.77;;
39620;SDS011;25309;48.686;9.170;2022-12-07T14:50:31;3.97;;;2.80;;
39620;SDS011;25309;48.686;9.170;2022-12-07T14:53:03;5.17;;;3.27;;
39620;SDS011;25309;48.686;9.170;2022-12-07T14:55:51;6.50;;;3.50;;
39620;SDS011;25309;48.686;9.170;2022-12-07T14:58:19;4.80;;;3.40;;
39620;SDS011;25309;48.686;9.170;2022-12-07T15:00:46;5.43;;;3.30;;
39620;SDS011;25309;48.686;9.170;2022-12-07T15:03:15;5.50;;;3.30;;
39620;SDS011;25309;48.686;9.170;2022-12-07T15:05:42;5.00;;;3.10;;
39620;SDS011;25309;48.686;9.170;2022-12-07T15:08:09;4.43;;;3.00;;
39620;SDS011;25309;48.686;9.170;2022-12-07T15:10:38;5.17;;;2.60;;
39620;SDS011;25309;48.686;9.170;2022-12-07T15:13:06;6.03;;;3.23;;
39620;SDS011;25309;48.686;9.170;2022-12-07T15:15:54;4.07;;;2.97;;
39620;SDS011;25309;48.686;9.170;2022-12-07T15:18:22;4.83;;;3.17;;
39620;SDS011;25309;48.686;9.170;2022-12-07T15:20:50;7.80;;;4.20;;
39620;SDS011;25309;48.686;9.170;2022-12-07T15:23:17;7.57;;;4.57;;
39620;SDS011;25309;48.686;9.170;2022-12-07T15:25:45;4.57;;;3.40;;
39620;SDS011;25309;48.686;9.170;2022-12-07T15:28:13;5.80;;;4.10;;
39620;SDS011;25309;48.686;9.170;2022-12-07T15:30:42;5.00;;;3.20;;
39620;SDS011;25309;48.686;9.170;2022-12-07T15:33:11;6.23;;;4.47;;
39620;SDS011;25309;48.686;9.170;2022-12-07T15:35:39;6.87;;;5.10;;